Time;durP1;ratioP1;P1;durP2;ratioP2;P2;SDS_P1;SDS_P2;PMS_P1;PMS_P2;Temp;Humidity;BMP_temperature;BMP_pressure;BME280_temperature;BME280_humidity;BME280_pressure;Samples;Min_cycle;Max_cycle;Signal;HPM_P1;HPM_P2
2021/12/20 00:00:26;;;;;;;0.15;0.15;;;;;;;;;;1837754;76;26296;-44
2021/12/20 00:02:55;;;;;;;0.20;0.10;;;;;;;;;;1834369;76;26286;-44
2021/12/20 00:05:23;;;;;;;0.15;0.15;;;;;;;;;;1831483;77;26720;-46
2021/12/20 00:07:51;;;;;;;0.10;0.10;;;;;;;;;;1837009;76;26781;-44
2021/12/20 00:10:19;;;;;;;0.10;0.10;;;;;;;;;;1838905;77;26871;-44
2021/12/20 00:12:46;;;;;;;0.20;0.20;;;;;;;;;;1838738;77;26297;-44
2021/12/20 00:15:14;;;;;;;0.78;0.28;;;;;;;;;;1838703;77;26623;-44
2021/12/20 00:17:41;;;;;;;0.10;0.10;;;;;;;;;;1839017;77;26254;-44
2021/12/20 00:20:09;;;;;;;0.20;0.20;;;;;;;;;;1828171;76;26371;-45
2021/12/20 00:22:37;;;;;;;0.80;0.20;;;;;;;;;;1829477;78;26820;-44
2021/12/20 00:25:05;;;;;;;0.20;0.20;;;;;;;;;;1809994;78;26288;-44
2021/12/20 00:27:32;;;;;;;0.30;0.30;;;;;;;;;;1818815;78;26556;-45
2021/12/20 00:30:00;;;;;;;0.37;0.20;;;;;;;;;;1829798;78;26278;-43
2021/12/20 00:32:27;;;;;;;0.20;0.20;;;;;;;;;;1828449;78;26812;-44
2021/12/20 00:34:54;;;;;;;0.15;0.15;;;;;;;;;;1809610;78;26759;-43
2021/12/20 00:40:24;;;;;;;0.42;0.20;;;;;;;;;;1826154;78;26399;-44
2021/12/20 00:42:50;;;;;;;0.33;0.17;;;;;;;;;;1826664;78;26344;-45
2021/12/20 00:45:18;;;;;;;1.65;0.30;;;;;;;;;;1809133;78;26330;-43
2021/12/20 00:47:46;;;;;;;0.33;0.23;;;;;;;;;;1830127;78;26626;-44
2021/12/20 00:50:14;;;;;;;0.20;0.20;;;;;;;;;;1829345;78;26259;-43
2021/12/20 00:52:43;;;;;;;0.20;0.20;;;;;;;;;;1830239;78;26298;-44
2021/12/20 00:55:12;;;;;;;0.20;0.20;;;;;;;;;;1830478;77;26314;-46
2021/12/20 00:57:39;;;;;;;3.72;0.30;;;;;;;;;;1827562;78;26286;-45
2021/12/20 01:00:08;;;;;;;0.10;0.10;;;;;;;;;;1808409;78;26293;-44
2021/12/20 01:02:35;;;;;;;1.20;0.33;;;;;;;;;;1812713;78;26319;-43
2021/12/20 01:05:04;;;;;;;0.40;0.40;;;;;;;;;;1811072;78;26273;-43
2021/12/20 01:07:31;;;;;;;0.20;0.20;;;;;;;;;;1829769;78;26329;-45
2021/12/20 01:10:02;;;;;;;0.10;0.10;;;;;;;;;;1829459;77;26763;-44
2021/12/20 01:12:32;;;;;;;0.30;0.30;;;;;;;;;;1808876;78;26396;-44
2021/12/20 01:15:01;;;;;;;0.30;0.30;;;;;;;;;;1820881;78;26428;-44
2021/12/20 01:17:29;;;;;;;1.75;0.30;;;;;;;;;;1818628;78;26336;-45
2021/12/20 01:19:57;;;;;;;0.35;0.35;;;;;;;;;;1829482;78;26613;-44
2021/12/20 01:22:24;;;;;;;0.30;0.30;;;;;;;;;;1828456;78;26772;-44
2021/12/20 01:24:52;;;;;;;0.20;0.20;;;;;;;;;;1828743;78;26298;-43
2021/12/20 01:27:19;;;;;;;0.30;0.20;;;;;;;;;;1823648;78;26291;-45
2021/12/20 01:29:46;;;;;;;0.68;0.20;;;;;;;;;;1825678;78;26888;-44
2021/12/20 01:32:14;;;;;;;0.45;0.30;;;;;;;;;;1820886;78;26306;-46
2021/12/20 01:34:41;;;;;;;0.40;0.20;;;;;;;;;;1829921;78;26301;-45
2021/12/20 01:37:08;;;;;;;0.50;0.35;;;;;;;;;;1819486;78;26342;-44
2021/12/20 01:39:36;;;;;;;0.20;0.20;;;;;;;;;;1819093;78;26914;-45
2021/12/20 01:42:04;;;;;;;0.10;0.10;;;;;;;;;;1817283;78;26358;-45
2021/12/20 01:44:32;;;;;;;0.53;0.20;;;;;;;;;;1823606;78;26930;-44
2021/12/20 01:47:02;;;;;;;0.20;0.20;;;;;;;;;;1818690;78;26266;-44
2021/12/20 01:49:31;;;;;;;0.20;0.20;;;;;;;;;;1830187;78;26336;-44
2021/12/20 01:54:26;;;;;;;0.33;0.30;;;;;;;;;;1830293;77;26591;-45
2021/12/20 01:56:54;;;;;;;0.35;0.35;;;;;;;;;;1829597;77;26220;-44
2021/12/20 01:59:22;;;;;;;2.00;0.30;;;;;;;;;;1827001;78;26692;-44
2021/12/20 02:01:50;;;;;;;0.37;0.37;;;;;;;;;;1819072;78;26378;-45
2021/12/20 02:04:19;;;;;;;1.45;0.40;;;;;;;;;;1828473;78;26322;-43
2021/12/20 02:06:48;;;;;;;0.40;0.40;;;;;;;;;;1806692;78;26367;-44
2021/12/20 02:09:17;;;;;;;0.30;0.30;;;;;;;;;;1823819;78;26284;-44
2021/12/20 02:11:46;;;;;;;0.30;0.30;;;;;;;;;;1829311;78;26330;-43
2021/12/20 02:14:14;;;;;;;0.57;0.30;;;;;;;;;;1814620;77;26360;-44
2021/12/20 02:16:43;;;;;;;0.72;0.28;;;;;;;;;;1821806;78;26272;-44
2021/12/20 02:19:12;;;;;;;1.75;0.30;;;;;;;;;;1830158;78;26304;-44
2021/12/20 02:21:40;;;;;;;0.23;0.20;;;;;;;;;;1811945;77;26343;-44
2021/12/20 02:24:08;;;;;;;0.65;0.28;;;;;;;;;;1805196;78;26472;-44
2021/12/20 02:26:36;;;;;;;0.28;0.28;;;;;;;;;;1824741;78;26343;-45
2021/12/20 02:29:05;;;;;;;0.30;0.30;;;;;;;;;;1839075;78;26922;-47
2021/12/20 02:37:26;;;;;;;0.20;0.20;;;;;;;;;;1815458;78;26745;-45
2021/12/20 02:39:49;;;;;;;0.20;0.20;;;;;;;;;;1827953;78;26286;-44
2021/12/20 02:42:20;;;;;;;0.35;0.35;;;;;;;;;;1829861;78;26270;-44
2021/12/20 02:44:46;;;;;;;0.88;0.33;;;;;;;;;;1828350;78;26313;-46
2021/12/20 02:47:26;;;;;;;0.30;0.30;;;;;;;;;;1831105;78;26262;-45
2021/12/20 02:49:44;;;;;;;0.20;0.20;;;;;;;;;;1837893;78;26364;-44
2021/12/20 02:52:11;;;;;;;0.20;0.20;;;;;;;;;;1835808;78;26314;-45
2021/12/20 02:54:39;;;;;;;0.47;0.30;;;;;;;;;;1832477;78;26371;-46
2021/12/20 02:57:06;;;;;;;0.20;0.20;;;;;;;;;;1829517;78;26275;-44
2021/12/20 02:59:33;;;;;;;0.30;0.30;;;;;;;;;;1838964;78;26306;-44
2021/12/20 03:02:02;;;;;;;0.65;0.30;;;;;;;;;;1836016;78;26693;-44
2021/12/20 03:04:30;;;;;;;0.50;0.15;;;;;;;;;;1836407;78;26745;-44
2021/12/20 03:06:59;;;;;;;0.20;0.20;;;;;;;;;;1830596;78;26326;-43
2021/12/20 03:09:31;;;;;;;0.20;0.20;;;;;;;;;;1831835;77;26829;-44
2021/12/20 03:11:59;;;;;;;0.30;0.30;;;;;;;;;;1834091;78;26281;-45
2021/12/20 03:14:32;;;;;;;0.20;0.20;;;;;;;;;;1821193;78;26335;-45
2021/12/20 03:16:59;;;;;;;0.28;0.28;;;;;;;;;;1814468;78;26358;-44
2021/12/20 03:19:26;;;;;;;0.10;0.10;;;;;;;;;;1824909;78;26282;-44
2021/12/20 03:21:54;;;;;;;0.25;0.25;;;;;;;;;;1839372;78;26334;-44
2021/12/20 03:24:21;;;;;;;0.20;0.20;;;;;;;;;;1825900;78;26370;-44
2021/12/20 03:26:49;;;;;;;0.33;0.20;;;;;;;;;;1834367;78;26364;-44
2021/12/20 03:29:17;;;;;;;0.20;0.20;;;;;;;;;;1817731;78;26728;-43
2021/12/20 03:31:45;;;;;;;0.10;0.10;;;;;;;;;;1808293;78;26281;-44
2021/12/20 03:34:12;;;;;;;0.10;0.10;;;;;;;;;;1809296;78;26682;-44
2021/12/20 03:36:39;;;;;;;0.17;0.17;;;;;;;;;;1823863;78;26341;-44
2021/12/20 03:39:08;;;;;;;0.20;0.20;;;;;;;;;;1803141;78;26780;-45
2021/12/20 03:41:36;;;;;;;0.47;0.30;;;;;;;;;;1802150;78;26265;-45
2021/12/20 03:44:04;;;;;;;0.20;0.20;;;;;;;;;;1804578;78;26296;-45
2021/12/20 03:46:31;;;;;;;0.20;0.20;;;;;;;;;;1826392;78;26350;-45
2021/12/20 03:48:59;;;;;;;0.20;0.20;;;;;;;;;;1830556;78;26338;-45
2021/12/20 03:51:26;;;;;;;0.20;0.20;;;;;;;;;;1823105;78;27123;-47
2021/12/20 03:53:54;;;;;;;0.20;0.20;;;;;;;;;;1823586;78;26329;-45
2021/12/20 03:56:21;;;;;;;0.40;0.20;;;;;;;;;;1816960;78;26268;-45
2021/12/20 03:58:48;;;;;;;0.70;0.35;;;;;;;;;;1821242;77;26329;-46
2021/12/20 04:01:16;;;;;;;0.08;0.08;;;;;;;;;;1814236;78;26282;-43
2021/12/20 04:03:43;;;;;;;0.23;0.23;;;;;;;;;;1827332;78;26428;-43
2021/12/20 04:06:12;;;;;;;0.42;0.30;;;;;;;;;;1818814;78;26340;-45
2021/12/20 04:08:40;;;;;;;0.28;0.20;;;;;;;;;;1814563;78;26255;-44
2021/12/20 04:11:07;;;;;;;0.10;0.10;;;;;;;;;;1824607;78;26352;-45
2021/12/20 04:13:35;;;;;;;0.20;0.20;;;;;;;;;;1826245;78;26354;-44
2021/12/20 04:16:03;;;;;;;0.30;0.30;;;;;;;;;;1814365;78;26309;-44
2021/12/20 04:18:31;;;;;;;0.42;0.20;;;;;;;;;;1815007;78;26348;-44
2021/12/20 04:20:59;;;;;;;0.20;0.20;;;;;;;;;;1816048;77;26376;-45
2021/12/20 04:23:26;;;;;;;0.33;0.15;;;;;;;;;;1803557;78;26285;-44
2021/12/20 04:25:53;;;;;;;0.20;0.20;;;;;;;;;;1806502;78;26298;-45
2021/12/20 04:28:21;;;;;;;0.20;0.20;;;;;;;;;;1812807;77;26263;-46
2021/12/20 04:30:48;;;;;;;0.20;0.20;;;;;;;;;;1824432;78;26792;-46
2021/12/20 04:33:15;;;;;;;0.10;0.10;;;;;;;;;;1830170;78;26301;-44
2021/12/20 04:35:43;;;;;;;1.92;0.20;;;;;;;;;;1830292;78;26397;-44
2021/12/20 04:38:10;;;;;;;0.13;0.13;;;;;;;;;;1829412;78;25694;-43
2021/12/20 04:40:38;;;;;;;1.35;0.20;;;;;;;;;;1826457;78;26229;-44
2021/12/20 04:43:05;;;;;;;0.98;0.17;;;;;;;;;;1823353;78;26816;-44
2021/12/20 04:45:33;;;;;;;0.20;0.20;;;;;;;;;;1830304;78;26272;-44
2021/12/20 04:48:01;;;;;;;0.53;0.23;;;;;;;;;;1833034;78;26774;-44
2021/12/20 04:50:28;;;;;;;1.75;0.30;;;;;;;;;;1835337;77;26309;-45
2021/12/20 04:52:56;;;;;;;0.30;0.30;;;;;;;;;;1830246;78;26806;-45
2021/12/20 04:55:24;;;;;;;0.33;0.33;;;;;;;;;;1829064;78;26278;-44
2021/12/20 04:57:52;;;;;;;0.62;0.17;;;;;;;;;;1829737;77;26283;-44
2021/12/20 05:00:20;;;;;;;0.17;0.17;;;;;;;;;;1813207;78;26747;-44
2021/12/20 05:02:48;;;;;;;0.65;0.20;;;;;;;;;;1813366;78;26808;-45
2021/12/20 05:05:15;;;;;;;0.40;0.40;;;;;;;;;;1825174;78;26302;-43
2021/12/20 05:07:44;;;;;;;0.90;0.20;;;;;;;;;;1830190;78;26760;-46
2021/12/20 05:10:15;;;;;;;0.10;0.10;;;;;;;;;;1830450;78;26903;-43
2021/12/20 05:12:41;;;;;;;0.13;0.13;;;;;;;;;;1830287;77;26355;-45
2021/12/20 05:15:09;;;;;;;0.50;0.40;;;;;;;;;;1813412;78;26297;-45
2021/12/20 05:17:36;;;;;;;0.20;0.20;;;;;;;;;;1823828;78;26803;-45
2021/12/20 05:20:05;;;;;;;1.00;0.30;;;;;;;;;;1818553;78;26370;-44
2021/12/20 05:22:32;;;;;;;0.10;0.10;;;;;;;;;;1829259;78;25632;-44
2021/12/20 05:24:59;;;;;;;0.17;0.17;;;;;;;;;;1809816;78;26256;-45
2021/12/20 05:27:27;;;;;;;1.10;0.20;;;;;;;;;;1828683;78;26294;-44
2021/12/20 05:29:54;;;;;;;0.55;0.10;;;;;;;;;;1829730;78;26304;-43
2021/12/20 05:32:21;;;;;;;0.20;0.20;;;;;;;;;;1817862;78;26301;-44
2021/12/20 05:34:49;;;;;;;0.20;0.20;;;;;;;;;;1824676;78;26632;-43
2021/12/20 05:37:16;;;;;;;0.15;0.15;;;;;;;;;;1825486;78;26347;-43
2021/12/20 05:39:45;;;;;;;0.20;0.20;;;;;;;;;;1829006;78;26225;-44
2021/12/20 05:42:13;;;;;;;0.53;0.10;;;;;;;;;;1825524;78;26302;-44
2021/12/20 05:44:40;;;;;;;0.13;0.13;;;;;;;;;;1817400;78;26296;-45
2021/12/20 05:47:07;;;;;;;2.60;0.23;;;;;;;;;;1812824;78;26308;-45
2021/12/20 05:49:35;;;;;;;1.15;0.20;;;;;;;;;;1820113;78;26336;-44
2021/12/20 05:52:05;;;;;;;0.20;0.20;;;;;;;;;;1820384;78;26224;-43
2021/12/20 05:54:33;;;;;;;0.10;0.10;;;;;;;;;;1818275;78;26350;-45
2021/12/20 05:57:00;;;;;;;0.10;0.10;;;;;;;;;;1821897;78;26274;-45
2021/12/20 05:59:27;;;;;;;0.13;0.10;;;;;;;;;;1813640;78;26351;-44
2021/12/20 06:01:55;;;;;;;0.20;0.20;;;;;;;;;;1822411;78;26289;-44
2021/12/20 06:04:22;;;;;;;0.10;0.10;;;;;;;;;;1821226;78;26895;-44
2021/12/20 06:06:49;;;;;;;0.10;0.10;;;;;;;;;;1818588;78;26749;-46
2021/12/20 06:09:17;;;;;;;0.15;0.15;;;;;;;;;;1821623;78;26802;-44
2021/12/20 06:11:44;;;;;;;0.15;0.15;;;;;;;;;;1821972;78;26353;-44
2021/12/20 06:14:11;;;;;;;0.25;0.20;;;;;;;;;;1819488;78;26297;-44
2021/12/20 06:16:39;;;;;;;0.30;0.30;;;;;;;;;;1813950;78;26637;-44
2021/12/20 06:19:07;;;;;;;0.28;0.10;;;;;;;;;;1817838;78;26278;-45
2021/12/20 06:21:35;;;;;;;0.20;0.20;;;;;;;;;;1817915;78;26584;-44
2021/12/20 06:24:02;;;;;;;0.30;0.30;;;;;;;;;;1814880;78;26311;-46
2021/12/20 06:26:30;;;;;;;0.25;0.25;;;;;;;;;;1817343;78;26389;-45
2021/12/20 06:28:57;;;;;;;0.40;0.40;;;;;;;;;;1818192;78;26228;-45
2021/12/20 06:31:24;;;;;;;0.40;0.40;;;;;;;;;;1832490;76;26737;-44
2021/12/20 06:33:52;;;;;;;0.65;0.50;;;;;;;;;;1836557;76;26258;-44
2021/12/20 06:36:20;;;;;;;0.68;0.60;;;;;;;;;;1829849;76;26289;-44
2021/12/20 06:38:49;;;;;;;1.55;0.60;;;;;;;;;;1828755;76;26714;-44
2021/12/20 06:41:18;;;;;;;0.65;0.60;;;;;;;;;;1837451;77;26278;-44
2021/12/20 06:43:45;;;;;;;0.95;0.70;;;;;;;;;;1837571;76;25628;-44
2021/12/20 06:46:13;;;;;;;1.07;0.80;;;;;;;;;;1838893;76;26931;-46
2021/12/20 06:48:41;;;;;;;1.10;0.80;;;;;;;;;;1838867;77;26281;-45
2021/12/20 06:51:08;;;;;;;1.10;0.90;;;;;;;;;;1834946;78;26820;-45
2021/12/20 06:53:35;;;;;;;0.82;0.82;;;;;;;;;;1833745;76;26700;-45
2021/12/20 06:56:03;;;;;;;1.12;0.82;;;;;;;;;;1837526;76;26234;-44
2021/12/20 06:58:30;;;;;;;1.47;0.80;;;;;;;;;;1834516;78;26284;-44
2021/12/20 07:00:58;;;;;;;2.25;0.90;;;;;;;;;;1839514;76;26288;-44
2021/12/20 07:03:25;;;;;;;1.05;0.80;;;;;;;;;;1839488;76;26339;-44
2021/12/20 07:05:52;;;;;;;0.80;0.80;;;;;;;;;;1834785;76;26766;-44
2021/12/20 07:08:20;;;;;;;0.90;0.70;;;;;;;;;;1832858;76;26301;-45
2021/12/20 07:10:47;;;;;;;0.80;0.80;;;;;;;;;;1832413;77;26335;-46
2021/12/20 07:13:14;;;;;;;0.90;0.90;;;;;;;;;;1829275;78;26773;-45
2021/12/20 07:15:41;;;;;;;0.80;0.80;;;;;;;;;;1835051;76;26341;-44
2021/12/20 07:18:09;;;;;;;1.85;0.70;;;;;;;;;;1831516;76;26285;-44
2021/12/20 07:20:36;;;;;;;0.65;0.60;;;;;;;;;;1831257;78;26266;-43
2021/12/20 07:23:05;;;;;;;0.60;0.60;;;;;;;;;;1837425;76;26352;-45
2021/12/20 07:25:32;;;;;;;1.57;0.90;;;;;;;;;;1826230;76;26313;-45
2021/12/20 07:27:59;;;;;;;1.65;0.65;;;;;;;;;;1828980;76;26793;-46
2021/12/20 07:30:27;;;;;;;3.08;0.70;;;;;;;;;;1830245;76;26305;-44
2021/12/20 07:32:54;;;;;;;1.27;0.70;;;;;;;;;;1830872;77;26237;-45
2021/12/20 07:35:22;;;;;;;3.22;0.75;;;;;;;;;;1836615;76;26340;-45
2021/12/20 07:37:52;;;;;;;0.90;0.70;;;;;;;;;;1827209;78;26642;-44
2021/12/20 07:40:19;;;;;;;0.65;0.65;;;;;;;;;;1835577;76;26339;-44
2021/12/20 07:42:47;;;;;;;4.78;0.75;;;;;;;;;;1828020;78;26218;-41
2021/12/20 07:45:14;;;;;;;1.75;0.60;;;;;;;;;;1831532;78;26324;-40
2021/12/20 07:47:42;;;;;;;1.50;0.60;;;;;;;;;;1833777;76;26162;-43
2021/12/20 07:50:09;;;;;;;0.60;0.60;;;;;;;;;;1827169;76;26314;-40
2021/12/20 07:52:37;;;;;;;1.12;0.53;;;;;;;;;;1828899;76;26319;-42
2021/12/20 07:55:04;;;;;;;0.60;0.60;;;;;;;;;;1832951;76;26366;-41
2021/12/20 07:57:32;;;;;;;2.72;0.70;;;;;;;;;;1831296;76;26285;-41
2021/12/20 07:59:59;;;;;;;0.50;0.50;;;;;;;;;;1829430;76;26266;-43
2021/12/20 08:02:26;;;;;;;0.62;0.62;;;;;;;;;;1837020;76;26760;-42
2021/12/20 08:04:54;;;;;;;1.75;0.60;;;;;;;;;;1832004;76;26037;-42
2021/12/20 08:07:22;;;;;;;0.53;0.53;;;;;;;;;;1834138;78;26977;-42
2021/12/20 08:09:50;;;;;;;7.60;0.90;;;;;;;;;;1811885;78;38870;-43
2021/12/20 08:12:18;;;;;;;8.90;0.80;;;;;;;;;;1817383;78;26704;-48
2021/12/20 08:14:46;;;;;;;3.92;0.70;;;;;;;;;;1832280;78;26259;-44
2021/12/20 08:17:13;;;;;;;3.12;0.55;;;;;;;;;;1817061;78;26833;-46
2021/12/20 08:19:40;;;;;;;1.92;0.50;;;;;;;;;;1828780;78;26266;-44
2021/12/20 08:22:08;;;;;;;5.37;0.70;;;;;;;;;;1825268;78;26354;-41
2021/12/20 08:24:35;;;;;;;1.57;0.45;;;;;;;;;;1820825;78;26335;-40
2021/12/20 08:27:03;;;;;;;9.55;0.80;;;;;;;;;;1832250;78;26311;-42
2021/12/20 08:29:31;;;;;;;0.40;0.40;;;;;;;;;;1828349;78;26348;-40
2021/12/20 08:32:02;;;;;;;0.50;0.50;;;;;;;;;;1823736;78;26372;-41
2021/12/20 08:34:31;;;;;;;1.30;0.37;;;;;;;;;;1838178;78;26745;-42
2021/12/20 08:37:01;;;;;;;2.15;0.42;;;;;;;;;;1821525;78;26311;-45
2021/12/20 08:39:28;;;;;;;1.95;0.53;;;;;;;;;;1826708;78;27359;-42
2021/12/20 08:41:56;;;;;;;1.75;0.50;;;;;;;;;;1829847;78;26263;-46
2021/12/20 08:44:24;;;;;;;0.37;0.37;;;;;;;;;;1823021;78;27794;-44
2021/12/20 08:46:52;;;;;;;2.87;0.57;;;;;;;;;;1829642;76;26333;-43
2021/12/20 08:49:20;;;;;;;0.30;0.30;;;;;;;;;;1827695;76;26328;-44
2021/12/20 08:51:48;;;;;;;1.22;0.30;;;;;;;;;;1822757;76;26316;-41
2021/12/20 08:54:15;;;;;;;2.15;0.37;;;;;;;;;;1838521;78;26327;-39
2021/12/20 08:56:43;;;;;;;0.50;0.50;;;;;;;;;;1839628;78;26348;-40
2021/12/20 08:59:11;;;;;;;0.35;0.30;;;;;;;;;;1825775;78;28727;-40
2021/12/20 09:01:38;;;;;;;0.33;0.33;;;;;;;;;;1839601;78;26253;-41
2021/12/20 09:04:07;;;;;;;0.30;0.30;;;;;;;;;;1839988;78;26277;-40
2021/12/20 09:06:39;;;;;;;0.50;0.40;;;;;;;;;;1827998;78;26269;-39
2021/12/20 09:09:05;;;;;;;0.30;0.23;;;;;;;;;;1833229;78;38834;-43
2021/12/20 09:11:32;;;;;;;0.40;0.30;;;;;;;;;;1839554;76;26353;-38
2021/12/20 09:13:59;;;;;;;3.23;0.40;;;;;;;;;;1827521;78;28444;-39
2021/12/20 09:16:27;;;;;;;0.30;0.30;;;;;;;;;;1838944;77;26787;-40
2021/12/20 09:18:54;;;;;;;0.30;0.30;;;;;;;;;;1814668;78;26264;-36
2021/12/20 09:21:22;;;;;;;0.40;0.40;;;;;;;;;;1834611;78;26363;-36
2021/12/20 09:23:49;;;;;;;0.35;0.30;;;;;;;;;;1837543;78;26306;-39
2021/12/20 09:26:17;;;;;;;0.20;0.20;;;;;;;;;;1833928;78;26844;-39
2021/12/20 09:28:44;;;;;;;0.40;0.40;;;;;;;;;;1838735;78;26289;-40
2021/12/20 09:31:12;;;;;;;0.40;0.40;;;;;;;;;;1839395;78;26744;-40
2021/12/20 09:33:39;;;;;;;1.22;0.10;;;;;;;;;;1839932;77;26281;-39
2021/12/20 09:36:07;;;;;;;1.07;0.23;;;;;;;;;;1818859;76;26360;-38
2021/12/20 09:38:35;;;;;;;0.10;0.10;;;;;;;;;;1826598;78;26606;-39
2021/12/20 09:41:15;;;;;;;0.13;0.13;;;;;;;;;;1838823;78;26364;-39
2021/12/20 09:43:31;;;;;;;1.17;0.68;;;;;;;;;;1834583;78;26685;-43
2021/12/20 09:45:59;;;;;;;0.30;0.30;;;;;;;;;;1822122;78;26337;-36
2021/12/20 09:48:26;;;;;;;0.47;0.35;;;;;;;;;;1839019;76;26294;-39
2021/12/20 09:50:55;;;;;;;2.27;0.30;;;;;;;;;;1821462;78;26751;-38
2021/12/20 09:53:22;;;;;;;0.28;0.28;;;;;;;;;;1837474;78;26328;-37
2021/12/20 09:55:51;;;;;;;2.37;0.17;;;;;;;;;;1829071;77;26377;-38
2021/12/20 09:58:20;;;;;;;0.30;0.30;;;;;;;;;;1826774;78;26284;-39
2021/12/20 10:00:48;;;;;;;1.05;0.23;;;;;;;;;;1835600;78;26378;-45
2021/12/20 10:03:16;;;;;;;0.23;0.20;;;;;;;;;;1834410;78;26850;-44
2021/12/20 10:05:44;;;;;;;0.25;0.23;;;;;;;;;;1833170;78;26737;-40
2021/12/20 10:08:20;;;;;;;0.20;0.20;;;;;;;;;;1827786;78;26765;-39
2021/12/20 10:10:48;;;;;;;0.25;0.20;;;;;;;;;;1835104;78;26338;-41
2021/12/20 10:13:23;;;;;;;0.40;0.20;;;;;;;;;;1833155;76;26830;-35
2021/12/20 10:15:50;;;;;;;0.23;0.23;;;;;;;;;;1831393;78;26812;-39
2021/12/20 10:18:18;;;;;;;0.60;0.33;;;;;;;;;;1825036;77;28377;-41
2021/12/20 10:20:50;;;;;;;0.72;0.30;;;;;;;;;;1835099;77;26619;-40
2021/12/20 10:23:22;;;;;;;1.95;0.25;;;;;;;;;;1838124;77;26278;-40
2021/12/20 10:25:54;;;;;;;1.27;0.42;;;;;;;;;;1832758;76;26861;-39
2021/12/20 10:28:23;;;;;;;0.30;0.23;;;;;;;;;;1838086;77;26348;-39
2021/12/20 10:30:55;;;;;;;0.20;0.20;;;;;;;;;;1823585;76;26297;-37
2021/12/20 10:33:23;;;;;;;0.20;0.20;;;;;;;;;;1826329;77;26909;-40
2021/12/20 10:35:53;;;;;;;0.20;0.20;;;;;;;;;;1837995;78;26295;-40
2021/12/20 10:38:23;;;;;;;0.10;0.10;;;;;;;;;;1834876;76;26340;-38
2021/12/20 10:40:55;;;;;;;0.25;0.15;;;;;;;;;;1839755;78;26321;-39
2021/12/20 10:43:24;;;;;;;0.23;0.20;;;;;;;;;;1839352;78;26722;-38
2021/12/20 10:45:52;;;;;;;1.25;0.20;;;;;;;;;;1838394;78;26278;-41
2021/12/20 10:48:20;;;;;;;0.10;0.10;;;;;;;;;;1836826;78;26690;-40
2021/12/20 10:50:48;;;;;;;0.20;0.20;;;;;;;;;;1838099;78;26282;-40
2021/12/20 10:53:25;;;;;;;0.57;0.30;;;;;;;;;;1839069;78;26743;-42
2021/12/20 10:56:06;;;;;;;0.20;0.20;;;;;;;;;;1826587;76;26827;-42
2021/12/20 10:58:38;;;;;;;0.10;0.10;;;;;;;;;;1829055;78;26829;-45
2021/12/20 11:01:21;;;;;;;0.20;0.20;;;;;;;;;;1836960;78;26379;-44
2021/12/20 11:03:46;;;;;;;0.28;0.28;;;;;;;;;;1822765;77;39436;-41
2021/12/20 11:06:26;;;;;;;0.35;0.20;;;;;;;;;;1831047;77;26817;-38
2021/12/20 11:09:06;;;;;;;0.20;0.20;;;;;;;;;;1831323;76;26722;-44
2021/12/20 11:11:35;;;;;;;0.37;0.30;;;;;;;;;;1833538;77;26290;-44
2021/12/20 11:14:03;;;;;;;0.30;0.25;;;;;;;;;;1829491;76;26785;-44
2021/12/20 11:16:32;;;;;;;0.45;0.25;;;;;;;;;;1831337;76;26352;-42
2021/12/20 11:19:09;;;;;;;0.42;0.20;;;;;;;;;;1832323;77;26325;-40
2021/12/20 11:21:38;;;;;;;0.20;0.20;;;;;;;;;;1833397;78;26352;-40
2021/12/20 11:24:13;;;;;;;0.25;0.25;;;;;;;;;;1834708;78;26265;-40
2021/12/20 11:26:40;;;;;;;0.30;0.30;;;;;;;;;;1838565;78;26383;-39
2021/12/20 11:29:08;;;;;;;0.20;0.20;;;;;;;;;;1838357;76;26717;-42
2021/12/20 11:31:37;;;;;;;0.20;0.20;;;;;;;;;;1833637;77;26773;-47
2021/12/20 11:34:05;;;;;;;0.20;0.20;;;;;;;;;;1833713;78;26881;-44
2021/12/20 11:36:34;;;;;;;0.20;0.20;;;;;;;;;;1834305;78;26373;-40
2021/12/20 11:39:03;;;;;;;0.23;0.23;;;;;;;;;;1831589;77;26286;-34
2021/12/20 11:41:30;;;;;;;0.20;0.20;;;;;;;;;;1828531;77;26309;-37
2021/12/20 11:43:58;;;;;;;0.20;0.20;;;;;;;;;;1822713;77;28318;-43
2021/12/20 11:46:27;;;;;;;1.55;0.30;;;;;;;;;;1837819;77;26278;-43
2021/12/20 11:48:57;;;;;;;0.20;0.20;;;;;;;;;;1834773;77;26348;-42
2021/12/20 11:51:24;;;;;;;0.20;0.20;;;;;;;;;;1834108;78;26339;-44
2021/12/20 11:53:51;;;;;;;0.20;0.20;;;;;;;;;;1838548;78;26285;-44
2021/12/20 11:56:22;;;;;;;1.55;0.20;;;;;;;;;;1838239;78;26417;-45
2021/12/20 11:58:49;;;;;;;0.20;0.20;;;;;;;;;;1835448;78;26789;-41
2021/12/20 12:01:18;;;;;;;0.72;0.30;;;;;;;;;;1824300;78;38697;-39
2021/12/20 12:03:53;;;;;;;0.37;0.20;;;;;;;;;;1839000;78;26316;-42
2021/12/20 12:06:25;;;;;;;0.20;0.20;;;;;;;;;;1836258;78;26281;-40
2021/12/20 12:08:55;;;;;;;1.47;0.30;;;;;;;;;;1838387;78;26278;-40
2021/12/20 12:11:27;;;;;;;0.50;0.50;;;;;;;;;;1838551;78;26786;-39
2021/12/20 12:14:03;;;;;;;1.75;0.50;;;;;;;;;;1835966;78;26317;-39
2021/12/20 12:16:47;;;;;;;0.60;0.60;;;;;;;;;;1834112;78;26321;-39
2021/12/20 12:19:16;;;;;;;1.82;0.60;;;;;;;;;;1833755;78;26779;-39
2021/12/20 12:21:43;;;;;;;0.95;0.72;;;;;;;;;;1828806;78;26316;-39
2021/12/20 12:24:14;;;;;;;1.05;0.60;;;;;;;;;;1834422;78;26269;-39
2021/12/20 12:26:47;;;;;;;0.68;0.60;;;;;;;;;;1838255;77;26825;-37
2021/12/20 12:29:18;;;;;;;2.10;0.80;;;;;;;;;;1823412;78;28267;-41
2021/12/20 12:31:53;;;;;;;1.52;0.80;;;;;;;;;;1825686;78;26324;-41
2021/12/20 12:34:22;;;;;;;1.15;0.70;;;;;;;;;;1825546;78;26303;-40
2021/12/20 12:36:49;;;;;;;0.68;0.62;;;;;;;;;;1820571;78;26392;-40
2021/12/20 12:39:25;;;;;;;0.72;0.60;;;;;;;;;;1816649;78;26788;-41
2021/12/20 12:41:56;;;;;;;2.27;0.93;;;;;;;;;;1818751;78;26731;-41
2021/12/20 12:44:34;;;;;;;0.85;0.62;;;;;;;;;;1822797;78;26330;-43
2021/12/20 12:47:10;;;;;;;2.77;0.70;;;;;;;;;;1821732;78;26293;-44
2021/12/20 12:49:36;;;;;;;2.37;0.75;;;;;;;;;;1813928;78;26282;-44
2021/12/20 12:52:08;;;;;;;1.72;0.60;;;;;;;;;;1822049;78;26259;-42
2021/12/20 12:54:43;;;;;;;1.27;0.60;;;;;;;;;;1804325;78;26379;-40
2021/12/20 12:57:12;;;;;;;1.55;0.70;;;;;;;;;;1800264;78;28435;-40
2021/12/20 12:59:41;;;;;;;0.62;0.40;;;;;;;;;;1822539;78;26831;-41
2021/12/20 13:02:09;;;;;;;2.02;0.40;;;;;;;;;;1804605;78;26842;-40
2021/12/20 13:04:50;;;;;;;0.72;0.50;;;;;;;;;;1822224;78;26761;-41
2021/12/20 13:07:18;;;;;;;0.70;0.50;;;;;;;;;;1799073;78;28352;-48
2021/12/20 13:09:47;;;;;;;1.05;0.47;;;;;;;;;;1806788;78;28299;-43
2021/12/20 13:17:39;;;;;;;1.50;0.37;;;;;;;;;;1817835;78;26309;-40
2021/12/20 13:20:08;;;;;;;1.75;0.42;;;;;;;;;;1814403;78;26353;-41
2021/12/20 13:22:36;;;;;;;0.40;0.40;;;;;;;;;;1819644;78;26299;-42
2021/12/20 13:25:04;;;;;;;0.57;0.30;;;;;;;;;;1804073;78;26274;-44
2021/12/20 13:27:33;;;;;;;0.50;0.50;;;;;;;;;;1805985;78;26337;-41
2021/12/20 13:30:00;;;;;;;0.82;0.50;;;;;;;;;;1820911;78;26857;-41
2021/12/20 13:32:28;;;;;;;0.30;0.30;;;;;;;;;;1808027;78;26305;-42
2021/12/20 13:34:56;;;;;;;0.30;0.30;;;;;;;;;;1823056;78;26314;-38
2021/12/20 13:37:25;;;;;;;0.65;0.30;;;;;;;;;;1813474;78;26335;-38
2021/12/20 13:39:55;;;;;;;0.40;0.30;;;;;;;;;;1820691;78;26282;-40
2021/12/20 13:42:24;;;;;;;0.72;0.45;;;;;;;;;;1828731;78;26364;-39
2021/12/20 13:44:51;;;;;;;0.78;0.37;;;;;;;;;;1822284;78;26380;-41
2021/12/20 13:47:19;;;;;;;0.75;0.45;;;;;;;;;;1819036;78;26654;-42
2021/12/20 13:49:47;;;;;;;0.28;0.28;;;;;;;;;;1821859;78;26787;-42
2021/12/20 13:52:14;;;;;;;0.30;0.30;;;;;;;;;;1810196;78;26687;-42
2021/12/20 13:54:46;;;;;;;0.85;0.20;;;;;;;;;;1826034;78;26244;-41
2021/12/20 13:57:16;;;;;;;0.30;0.30;;;;;;;;;;1821239;78;26362;-40
2021/12/20 14:00:02;;;;;;;0.30;0.30;;;;;;;;;;1818750;78;26753;-42
2021/12/20 14:02:31;;;;;;;0.25;0.25;;;;;;;;;;1822857;78;26381;-41
2021/12/20 14:05:17;;;;;;;0.20;0.20;;;;;;;;;;1815393;78;26342;-41
2021/12/20 14:07:47;;;;;;;0.20;0.20;;;;;;;;;;1828041;78;26445;-42
2021/12/20 14:10:16;;;;;;;0.30;0.30;;;;;;;;;;1819276;78;26824;-36
2021/12/20 14:12:45;;;;;;;0.23;0.17;;;;;;;;;;1818419;77;26473;-38
2021/12/20 14:15:17;;;;;;;0.72;0.25;;;;;;;;;;1827720;78;26705;-39
2021/12/20 14:17:52;;;;;;;0.23;0.23;;;;;;;;;;1810439;78;26752;-43
2021/12/20 14:20:20;;;;;;;0.20;0.20;;;;;;;;;;1816535;78;26709;-41
2021/12/20 14:22:51;;;;;;;0.30;0.30;;;;;;;;;;1815416;77;26820;-44
2021/12/20 14:25:18;;;;;;;0.25;0.25;;;;;;;;;;1810621;78;26400;-39
2021/12/20 14:27:47;;;;;;;0.30;0.30;;;;;;;;;;1826349;78;26263;-40
2021/12/20 14:30:22;;;;;;;0.20;0.20;;;;;;;;;;1820104;78;26593;-39
2021/12/20 14:32:49;;;;;;;0.30;0.30;;;;;;;;;;1824440;78;26340;-45
2021/12/20 14:35:24;;;;;;;0.20;0.20;;;;;;;;;;1835787;78;27391;-40
2021/12/20 14:37:52;;;;;;;0.30;0.30;;;;;;;;;;1832384;77;26363;-42
2021/12/20 14:40:38;;;;;;;0.20;0.20;;;;;;;;;;1832205;78;26498;-36
2021/12/20 14:43:13;;;;;;;0.20;0.20;;;;;;;;;;1833069;78;26313;-36
2021/12/20 14:45:39;;;;;;;0.20;0.20;;;;;;;;;;1825727;78;26811;-36
2021/12/20 14:48:18;;;;;;;0.30;0.30;;;;;;;;;;1827748;78;26295;-36
2021/12/20 14:50:48;;;;;;;1.65;0.30;;;;;;;;;;1821892;78;26260;-41
2021/12/20 14:53:24;;;;;;;0.30;0.30;;;;;;;;;;1826215;78;26887;-45
2021/12/20 14:55:51;;;;;;;0.30;0.30;;;;;;;;;;1832670;78;26790;-41
2021/12/20 14:58:20;;;;;;;0.15;0.15;;;;;;;;;;1822880;78;26250;-43
2021/12/20 15:00:48;;;;;;;0.20;0.20;;;;;;;;;;1830509;76;28428;-40
2021/12/20 15:03:18;;;;;;;0.30;0.30;;;;;;;;;;1836896;78;26299;-40
2021/12/20 15:05:45;;;;;;;2.10;0.20;;;;;;;;;;1838381;78;26278;-45
2021/12/20 15:08:13;;;;;;;0.68;0.25;;;;;;;;;;1818380;78;26294;-44